Anita Eve Sharp — WDC6563 — position and weather

sailwx.info

Track history (hours):
 
Tides and Currents Weather Stations Pressure Air Temp Water Temp Dewpoint Dewpoint Depression Visibility Wind Speed Wind Dir Waves Ship Positions

Anita Eve Sharp

Owner: American Commercial Lines LLC, Jeffersonvillle, IN. More information available from US FCC via Universal Licensing System and Coast Guard Vessel Documentation Center.

Last reported at 2018-May-25 18:30 UTC. Time now 2018-May-25 18:48 UTC.
Position N 30°01' W 093°59'.

Length 26 m; draft 2.9 m.

Type: Tug. MMSI: 367057930.

Date/timePositionNaut miles runAvg speedWind from/ knotsBaromVisibWave heightAir tempDewpointWater temp
2018-May-25 18:30N 30°01' W 093°59'0 0.0
2018-May-25 18:00N 30°01' W 093°59'0 0.0
2018-May-25 17:30N 30°01' W 093°59'0 0.0
2018-May-25 16:59N 30°01' W 093°59'0 0.0
2018-May-25 16:27N 30°01' W 093°59'0 0.0
2018-May-25 16:00N 30°01' W 093°59'0 0.0
2018-May-25 15:29N 30°01' W 093°59'0 0.0
2018-May-25 15:00N 30°01' W 093°59'0 0.0
2018-May-25 14:30N 30°01' W 093°59'0 0.0
2018-May-25 14:00N 30°01' W 093°59'0 0.0
2018-May-25 13:30N 30°01' W 093°59'0 0.0
2018-May-25 13:00N 30°01' W 093°59'0 0.0
2018-May-25 12:29N 30°01' W 093°59'0 0.0
2018-May-25 12:00N 30°01' W 093°59'0 0.0
2018-May-25 11:30N 30°01' W 093°59'0 0.0
2018-May-25 11:00N 30°01' W 093°59'0 0.0
2018-May-25 10:30N 30°01' W 093°59'0 0.0
2018-May-25 10:00N 30°01' W 093°59'0 0.0
2018-May-25 09:30N 30°01' W 093°59'0 0.0
2018-May-25 09:00N 30°01' W 093°59'0 0.0
2018-May-25 08:30N 30°01' W 093°59'0 0.0
2018-May-25 08:00N 30°01' W 093°59'0 0.0
2018-May-25 07:30N 30°01' W 093°59'0 0.0
2018-May-25 07:00N 30°01' W 093°59'0 0.0
2018-May-25 06:30N 30°01' W 093°59'0 0.0
2018-May-25 06:00N 30°01' W 093°59'0 0.0
2018-May-25 05:29N 30°01' W 093°59'0 0.3
2018-May-25 05:00N 30°01' W 093°59'2 3.2
2018-May-25 04:30N 30°00' W 093°57'3 5.5
2018-May-25 04:00N 29°59' W 093°54'3 5.3
2018-May-25 03:30N 29°58' W 093°51'3 5.6
2018-May-25 03:00N 29°56' W 093°53'3 5.4
2018-May-25 02:30N 29°54' W 093°55'3 5.5
2018-May-25 02:00N 29°51' W 093°56'2 4.9
2018-May-25 01:30N 29°49' W 093°58'3 5.6
2018-May-25 01:00N 29°48' W 094°01'3 5.8
2018-May-25 00:30N 29°46' W 094°03'3 5.7
2018-May-25 00:00N 29°44' W 094°06'3 5.5
2018-May-24 23:29N 29°42' W 094°08'3 5.2
2018-May-24 23:00N 29°41' W 094°11'3 5.2
2018-May-24 22:30N 29°40' W 094°14'3 5.0
2018-May-24 22:00N 29°39' W 094°16'2 4.9
2018-May-24 21:30N 29°38' W 094°19'2 4.9
2018-May-24 21:00N 29°37' W 094°21'2 4.1
2018-May-24 20:28N 29°36' W 094°23'2 3.6
2018-May-24 19:57N 29°34' W 094°25'2 3.6
2018-May-24 19:28N 29°34' W 094°27'6 4.7
2018-May-24 18:06N 29°30' W 094°33'3 5.4
2018-May-24 17:31N 29°29' W 094°36'1 5.6
2018-May-24 17:24N 29°29' W 094°37'2 5.7
2018-May-24 16:59N 29°28' W 094°39'3 5.7
2018-May-24 16:30N 29°26' W 094°42'3 5.7
2018-May-24 16:00N 29°24' W 094°45'3 5.7
2018-May-24 15:30N 29°22' W 094°47'3 5.1
2018-May-24 14:53N 29°25' W 094°50'3 6.9
2018-May-24 14:30N 29°27' W 094°51'3 6.7
2018-May-24 14:00N 29°30' W 094°52'3 6.6
2018-May-24 13:30N 29°33' W 094°55'16 2.3
2018-May-24 06:32N 29°46' W 095°05'0 1.6
2018-May-24 06:30N 29°46' W 095°05'1 0.1
2018-May-23 21:12N 29°46' W 095°07'0 0.0
2018-May-23 20:59N 29°46' W 095°07'0 0.0
2018-May-23 20:29N 29°46' W 095°07'0 0.0
2018-May-23 16:29N 29°46' W 095°07'0 0.1
2018-May-23 13:09N 29°46' W 095°07'0 2.3
2018-May-23 12:57N 29°46' W 095°06'1 1.2
2018-May-23 12:22N 29°46' W 095°05'2 3.8
2018-May-23 11:57N 29°45' W 095°04'2 4.2
2018-May-23 11:29N 29°44' W 095°02'2 3.6
2018-May-23 10:59N 29°42' W 095°01'2 4.5
2018-May-23 10:30N 29°41' W 094°59'3 5.2
2018-May-23 10:00N 29°38' W 094°58'3 5.5
2018-May-23 09:30N 29°36' W 094°57'3 5.9
2018-May-23 08:58N 29°33' W 094°55'3 5.8
2018-May-23 08:30N 29°31' W 094°53'6 5.7
2018-May-23 07:22N 29°25' W 094°50'2 5.9
2018-May-23 06:57N 29°23' W 094°49'2 3.9
2018-May-23 06:30N 29°23' W 094°47'2 4.1
2018-May-23 05:59N 29°24' W 094°45'2 3.2
2018-May-23 05:29N 29°25' W 094°44'3 3.5
2018-May-23 04:35N 29°27' W 094°41'1 4.7
2018-May-23 04:29N 29°28' W 094°40'2 4.7
2018-May-23 04:00N 29°28' W 094°38'2 4.8
2018-May-23 03:30N 29°29' W 094°35'3 4.8
2018-May-23 02:53N 29°30' W 094°32'2 4.8
2018-May-23 02:30N 29°31' W 094°30'3 4.6
2018-May-23 01:51N 29°33' W 094°28'2 4.3
2018-May-23 01:30N 29°34' W 094°26'2 3.2
2018-May-23 01:00N 29°35' W 094°25'2 3.0
2018-May-23 00:28N 29°36' W 094°23'2 3.4
2018-May-23 00:00N 29°36' W 094°22'2 3.1
2018-May-22 23:29N 29°37' W 094°20'2 4.6
2018-May-22 23:00N 29°38' W 094°18'2 4.7
2018-May-22 22:30N 29°39' W 094°15'2 4.9
2018-May-22 22:00N 29°40' W 094°13'2 4.8
2018-May-22 21:30N 29°41' W 094°10'2 4.9
2018-May-22 21:00N 29°43' W 094°08'3 5.1
2018-May-22 20:30N 29°44' W 094°06'2 4.8
2018-May-22 20:00N 29°46' W 094°03'3 5.5
2018-May-22 19:30N 29°47' W 094°01'3 5.2
2018-May-22 19:00N 29°49' W 093°59'2 4.2
2018-May-22 18:30N 29°51' W 093°57'2 3.5
2018-May-22 18:00N 29°52' W 093°56'2 4.4
2018-May-22 17:30N 29°54' W 093°54'2 4.2
2018-May-22 17:00N 29°55' W 093°53'2 4.3
2018-May-22 16:30N 29°57' W 093°52'2 3.5
2018-May-22 16:00N 29°59' W 093°52'2 4.6
2018-May-22 15:30N 29°59' W 093°55'2 4.5
2018-May-22 15:00N 30°00' W 093°57'2 3.4
2018-May-22 14:30N 30°01' W 093°59'0 0.2
2018-May-22 14:00N 30°01' W 093°59'0 0.0
2018-May-22 13:30N 30°01' W 093°59'0 0.0
2018-May-22 13:00N 30°01' W 093°59'0 0.0
2018-May-22 12:23N 30°01' W 093°59'0 0.0
2018-May-22 12:00N 30°01' W 093°59'0 0.0
2018-May-22 11:30N 30°01' W 093°59'0 0.0
2018-May-22 10:58N 30°01' W 093°59'0 0.0
2018-May-22 10:29N 30°01' W 093°59'0 0.0
2018-May-22 09:57N 30°01' W 093°59'0 0.0
2018-May-22 09:29N 30°01' W 093°59'0 0.0
2018-May-22 09:00N 30°01' W 093°59'0 0.0
2018-May-22 08:27N 30°01' W 093°59'0 0.0
2018-May-22 07:58N 30°01' W 093°59'0 0.0
2018-May-22 07:30N 30°01' W 093°59'0 0.0
2018-May-22 07:00N 30°01' W 093°59'0 0.0
2018-May-22 06:29N 30°01' W 093°59'0 0.0
2018-May-22 06:00N 30°01' W 093°59'0 0.0
2018-May-22 05:28N 30°01' W 093°59'0 0.0
2018-May-22 04:59N 30°01' W 093°59'0 0.0
2018-May-22 04:15N 30°01' W 093°59'0 0.0
2018-May-22 03:59N 30°01' W 093°59'0 0.0
2018-May-22 03:27N 30°01' W 093°59'0 0.0
2018-May-22 03:00N 30°01' W 093°59'0 0.0
2018-May-22 02:29N 30°01' W 093°59'0 0.0
2018-May-22 01:59N 30°01' W 093°59'0 0.0
2018-May-22 01:27N 30°01' W 093°59'0 0.0
2018-May-22 00:58N 30°01' W 093°59'0 0.0
2018-May-22 00:30N 30°01' W 093°59'0 0.0
2018-May-21 23:47N 30°01' W 093°59'0 0.0
2018-May-21 23:30N 30°01' W 093°59'0 0.0
2018-May-21 23:00N 30°01' W 093°59'0 0.0
2018-May-21 22:29N 30°01' W 093°59'0 0.1
2018-May-21 22:00N 30°01' W 093°59'0 1.0
2018-May-21 21:29N 30°01' W 093°59'0 0.0
2018-May-21 20:59N 30°01' W 093°59'0 0.0
2018-May-21 20:30N 30°01' W 093°59'0 0.0
2018-May-21 20:00N 30°01' W 093°59'0 0.0
2018-May-21 19:29N 30°01' W 093°59'0 0.0
2018-May-21 19:00N 30°01' W 093°59'0 0.0
2018-May-21 18:30N 30°01' W 093°59'0 0.0
2018-May-21 18:00N 30°01' W 093°59'0 0.0
2018-May-21 17:30N 30°01' W 093°59'0 0.0
2018-May-21 17:00N 30°01' W 093°59'0 0.0
2018-May-21 16:30N 30°01' W 093°59'0 0.0
2018-May-21 15:58N 30°01' W 093°59'0 0.0
2018-May-21 15:29N 30°01' W 093°59'0 0.0
2018-May-21 14:58N 30°01' W 093°59'0 0.0
2018-May-21 14:30N 30°01' W 093°59'0 0.0
2018-May-21 13:58N 30°01' W 093°59'0 0.0
2018-May-21 13:30N 30°01' W 093°59'0 0.0
2018-May-21 13:00N 30°01' W 093°59'0 0.0
2018-May-21 12:28N 30°01' W 093°59'0 0.0
2018-May-21 12:00N 30°01' W 093°59'0 0.0
2018-May-21 11:30N 30°01' W 093°59'0 0.0
2018-May-21 11:00N 30°01' W 093°59'0 0.0
2018-May-21 10:30N 30°01' W 093°59'0 0.0
2018-May-21 10:00N 30°01' W 093°59'0 0.0
2018-May-21 09:30N 30°01' W 093°59'0 0.0
2018-May-21 09:00N 30°01' W 093°59'0 0.0
2018-May-21 08:30N 30°01' W 093°59'0 0.0
2018-May-21 08:00N 30°01' W 093°59'0 0.0
2018-May-21 07:30N 30°01' W 093°59'0 0.0
2018-May-21 07:00N 30°01' W 093°59'0 0.0
2018-May-21 06:30N 30°01' W 093°59'0 0.0
2018-May-21 06:00N 30°01' W 093°59'0 0.0
2018-May-21 05:30N 30°01' W 093°59'0 0.0
2018-May-21 05:00N 30°01' W 093°59'0 0.0
2018-May-21 04:30N 30°01' W 093°59'0 0.0
2018-May-21 03:59N 30°01' W 093°59'0 0.0
2018-May-21 03:29N 30°01' W 093°59'0 0.0
2018-May-21 03:00N 30°01' W 093°59'0 0.0
2018-May-21 02:30N 30°01' W 093°59'0 0.0
2018-May-21 01:54N 30°01' W 093°59'0 0.0
2018-May-21 01:30N 30°01' W 093°59'0 0.0
2018-May-21 01:00N 30°01' W 093°59'0 0.0
2018-May-21 00:30N 30°01' W 093°59'0 0.0
2018-May-21 00:00N 30°01' W 093°59'0 0.0
2018-May-20 23:30N 30°01' W 093°59'0 0.0
2018-May-20 23:00N 30°01' W 093°59'0 0.0
2018-May-20 22:30N 30°01' W 093°59'0 0.0
2018-May-20 22:00N 30°01' W 093°59'0 0.0
2018-May-20 21:30N 30°01' W 093°59'0 0.0
2018-May-20 21:00N 30°01' W 093°59'0 0.0
2018-May-20 20:30N 30°01' W 093°59'0 0.0
2018-May-20 20:00N 30°01' W 093°59'0 0.0
2018-May-20 19:30N 30°01' W 093°59'0 0.0
2018-May-20 18:59N 30°01' W 093°59'0 0.0
2018-May-20 18:30N 30°01' W 093°59'0 0.0
2018-May-20 18:00N 30°01' W 093°59'0 0.0
2018-May-20 17:29N 30°01' W 093°59'0 0.0
2018-May-20 17:00N 30°01' W 093°59'0 0.0
2018-May-20 16:30N 30°01' W 093°59'0 0.0
2018-May-20 16:00N 30°01' W 093°59'0 0.0
2018-May-20 15:30N 30°01' W 093°59'0 0.1
2018-May-20 15:00N 30°01' W 093°59'0 0.1
2018-May-20 14:30N 30°01' W 093°59'0 0.0
2018-May-20 14:00N 30°01' W 093°59'0 0.0
2018-May-20 13:31N 30°01' W 093°59'0 0.0
2018-May-20 13:00N 30°01' W 093°59'0 0.6
2018-May-20 12:30N 30°01' W 093°59'2 4.3
2018-May-20 12:01N 29°60' W 093°57'3 5.8
2018-May-20 11:30N 29°59' W 093°54'2 4.9
2018-May-20 11:00N 29°58' W 093°51'3 5.7
2018-May-20 10:30N 29°56' W 093°53'3 5.3
2018-May-20 10:00N 29°53' W 093°55'3 5.1
2018-May-20 09:30N 29°51' W 093°56'2 4.7
2018-May-20 09:00N 29°49' W 093°58'3 5.1
2018-May-20 08:30N 29°48' W 094°00'3 5.3
2018-May-20 08:00N 29°46' W 094°03'3 5.3
2018-May-20 07:30N 29°45' W 094°05'3 5.3
2018-May-20 07:00N 29°43' W 094°07'2 4.9
2018-May-20 06:31N 29°41' W 094°10'3 5.1
2018-May-20 06:00N 29°41' W 094°12'3 5.1
2018-May-20 05:30N 29°40' W 094°15'2 4.9
2018-May-20 05:00N 29°38' W 094°17'2 4.6
2018-May-20 04:30N 29°37' W 094°20'2 4.3
2018-May-20 03:57N 29°36' W 094°22'2 3.8
2018-May-20 03:30N 29°36' W 094°24'1 1.6
2018-May-20 02:55N 29°35' W 094°25'21 4.3
2018-May-19 22:02N 29°24' W 094°45'1 5.9
2018-May-19 21:55N 29°23' W 094°46'3 4.1
2018-May-19 21:18N 29°23' W 094°49'2 6.0
2018-May-19 20:59N 29°25' W 094°50'3 6.1
2018-May-19 20:28N 29°28' W 094°51'3 6.0
2018-May-19 20:00N 29°30' W 094°53'3 5.9
2018-May-19 19:30N 29°33' W 094°54'3 5.9
2018-May-19 19:00N 29°35' W 094°56'3 5.1
2018-May-19 18:30N 29°38' W 094°58'3 5.9
2018-May-19 18:00N 29°40' W 094°59'3 5.4
2018-May-19 17:28N 29°42' W 095°01'6 0.3
2018-May-19 01:11N 29°46' W 095°06'0 2.4
2018-May-19 01:00N 29°45' W 095°06'1 1.8
2018-May-19 00:11N 29°45' W 095°04'1 5.5
2018-May-18 23:58N 29°44' W 095°04'2 5.0
2018-May-18 23:30N 29°43' W 095°01'2 4.5
2018-May-18 23:00N 29°42' W 094°59'3 5.9
2018-May-18 22:30N 29°39' W 094°58'3 6.1
2018-May-18 22:00N 29°36' W 094°57'3 6.2
2018-May-18 21:30N 29°33' W 094°55'3 6.0
2018-May-18 21:00N 29°31' W 094°53'9 6.0
2018-May-18 19:27N 29°23' W 094°48'8 4.1
2018-May-18 17:29N 29°27' W 094°41'3 4.8
2018-May-18 16:56N 29°28' W 094°38'2 4.6
2018-May-18 16:30N 29°29' W 094°36'3 4.6
2018-May-18 15:53N 29°30' W 094°33'2 4.1
2018-May-18 15:27N 29°31' W 094°31'2 4.5
2018-May-18 14:59N 29°32' W 094°29'2 4.2
2018-May-18 14:30N 29°34' W 094°28'0 0.0
2018-May-18 14:00N 29°34' W 094°28'0 0.1
2018-May-18 13:30N 29°34' W 094°28'1 1.6
2018-May-18 12:59N 29°34' W 094°27'2 3.6
2018-May-18 12:28N 29°35' W 094°25'1 2.6
2018-May-18 11:59N 29°36' W 094°24'1 1.9
2018-May-18 11:30N 29°36' W 094°23'2 4.4
2018-May-18 11:00N 29°37' W 094°21'2 4.3
2018-May-18 10:30N 29°38' W 094°19'2 3.8
2018-May-18 10:00N 29°39' W 094°17'2 3.4
2018-May-18 09:30N 29°40' W 094°15'2 4.2
2018-May-18 09:00N 29°40' W 094°13'2 4.0
2018-May-18 08:30N 29°41' W 094°11'2 3.9
2018-May-18 08:00N 29°42' W 094°09'2 3.9
2018-May-18 07:30N 29°43' W 094°07'2 3.8
2018-May-18 07:00N 29°44' W 094°05'2 3.7
2018-May-18 06:30N 29°46' W 094°04'2 3.6
2018-May-18 06:00N 29°47' W 094°02'2 3.6
2018-May-18 05:30N 29°48' W 094°00'2 3.4
2018-May-18 05:00N 29°49' W 093°59'1 1.5
2018-May-18 04:30N 29°49' W 093°58'3 5.3
2018-May-18 04:00N 29°51' W 093°56'3 5.9
2018-May-18 03:30N 29°54' W 093°54'3 6.1
2018-May-18 03:00N 29°56' W 093°52'3 5.0
2018-May-18 02:30N 29°59' W 093°52'3 5.2
2018-May-18 02:00N 29°59' W 093°55'2 4.4
2018-May-18 01:30N 29°60' W 093°57'2 3.5
2018-May-18 01:00N 30°01' W 093°59'0 0.2
2018-May-18 00:31N 30°01' W 093°59'0 0.1
2018-May-17 23:58N 30°01' W 093°59'0 0.0
2018-May-17 23:25N 30°01' W 093°59'0 0.0
2018-May-17 23:00N 30°01' W 093°59'0 0.0
2018-May-17 22:30N 30°01' W 093°59'0 0.0
2018-May-17 22:00N 30°01' W 093°59'0 0.0
2018-May-17 21:27N 30°01' W 093°59'0 0.0
2018-May-17 21:00N 30°01' W 093°59'0 0.0
2018-May-17 20:30N 30°01' W 093°59'0 0.0
2018-May-17 19:50N 30°01' W 093°59'0 0.0
2018-May-17 19:19N 30°01' W 093°59'0 0.0
2018-May-17 18:49N 30°01' W 093°59'0 0.0
2018-May-17 18:27N 30°01' W 093°59'0 0.0
2018-May-17 17:59N 30°01' W 093°59'0 0.0
2018-May-17 17:28N 30°01' W 093°59'0 0.0
2018-May-17 16:59N 30°01' W 093°59'0 0.0
2018-May-17 16:28N 30°01' W 093°59'0 0.0
2018-May-17 16:00N 30°01' W 093°59'0 0.0
2018-May-17 15:30N 30°01' W 093°59'0 0.0
2018-May-17 14:59N 30°01' W 093°59'0 0.0
2018-May-17 14:30N 30°01' W 093°59'0 0.0
2018-May-17 13:59N 30°01' W 093°59'0 0.0
2018-May-17 13:30N 30°01' W 093°59'0 0.0
2018-May-17 13:00N 30°01' W 093°59'0 0.0
2018-May-17 12:28N 30°01' W 093°59'0 0.0
2018-May-17 12:00N 30°01' W 093°59'0 0.0
2018-May-17 11:30N 30°01' W 093°59'0 0.0
2018-May-17 11:00N 30°01' W 093°59'0 0.0
2018-May-17 10:29N 30°01' W 093°59'0 0.0
2018-May-17 10:00N 30°01' W 093°59'0 0.0
2018-May-17 09:30N 30°01' W 093°59'0 0.0
2018-May-17 09:00N 30°01' W 093°59'0 0.0
2018-May-17 08:28N 30°01' W 093°59'0 0.0
2018-May-17 07:51N 30°01' W 093°59'0 0.0
2018-May-17 07:28N 30°01' W 093°59'0 0.1
2018-May-17 07:00N 30°01' W 093°59'1 2.3
2018-May-17 06:30N 30°01' W 093°58'2 3.9
2018-May-17 06:00N 29°60' W 093°56'2 4.1
2018-May-17 05:30N 29°59' W 093°54'2 4.0
2018-May-17 05:00N 29°59' W 093°52'2 3.7
2018-May-17 04:30N 29°57' W 093°52'1 1.1
2018-May-17 04:00N 29°57' W 093°52'0 0.0
2018-May-17 03:30N 29°57' W 093°52'0 0.0
2018-May-17 03:00N 29°57' W 093°52'0 0.0
2018-May-17 02:30N 29°57' W 093°52'0 0.0
2018-May-17 02:00N 29°57' W 093°52'0 0.0
2018-May-17 01:30N 29°57' W 093°52'0 0.0
2018-May-17 01:00N 29°57' W 093°52'0 0.0
2018-May-17 00:30N 29°57' W 093°52'0 0.0
2018-May-17 00:00N 29°57' W 093°52'0 0.0
2018-May-16 23:30N 29°57' W 093°52'0 0.0
2018-May-16 23:00N 29°57' W 093°52'0 0.0
2018-May-16 22:30N 29°57' W 093°52'0 0.0
2018-May-16 22:00N 29°57' W 093°52'0 0.0
2018-May-16 21:30N 29°57' W 093°52'0 0.0
2018-May-16 21:00N 29°57' W 093°52'1 1.1
2018-May-16 20:30N 29°58' W 093°52'1 1.1
2018-May-16 20:00N 29°57' W 093°52'0 0.0
2018-May-16 19:30N 29°57' W 093°52'0 0.0
2018-May-16 19:00N 29°57' W 093°52'0 0.0
2018-May-16 18:31N 29°57' W 093°52'0 0.0
2018-May-16 18:00N 29°57' W 093°52'0 0.0
2018-May-16 17:30N 29°57' W 093°52'0 0.0
2018-May-16 17:00N 29°57' W 093°52'0 0.0
2018-May-16 16:30N 29°57' W 093°52'0 0.0
2018-May-16 16:00N 29°57' W 093°52'0 0.0
2018-May-16 15:30N 29°57' W 093°52'0 0.0
2018-May-16 15:00N 29°57' W 093°52'0 0.0
2018-May-16 14:30N 29°57' W 093°52'0 0.0
2018-May-16 14:00N 29°57' W 093°52'0 0.0
2018-May-16 13:30N 29°57' W 093°52'0 0.0
2018-May-16 13:00N 29°57' W 093°52'0 0.0
2018-May-16 12:30N 29°57' W 093°52'0 0.0
2018-May-16 12:00N 29°57' W 093°52'0 0.0
2018-May-16 11:30N 29°57' W 093°52'0 0.0
2018-May-16 11:00N 29°57' W 093°52'0 0.0
2018-May-16 10:30N 29°57' W 093°52'0 0.0
2018-May-16 10:00N 29°57' W 093°52'0 0.0
2018-May-16 09:30N 29°57' W 093°52'0 0.4
2018-May-16 09:00N 29°57' W 093°52'1 2.7
2018-May-16 08:30N 29°56' W 093°52'2 4.3
2018-May-16 08:00N 29°54' W 093°54'2 4.8
2018-May-16 07:30N 29°52' W 093°56'2 4.4
2018-May-16 07:00N 29°50' W 093°57'2 3.7
2018-May-16 06:30N 29°49' W 093°59'2 4.4
2018-May-16 06:00N 29°48' W 094°01'3 5.3
2018-May-16 05:30N 29°46' W 094°03'3 5.7
2018-May-16 05:00N 29°44' W 094°06'3 5.5
2018-May-16 04:30N 29°42' W 094°08'3 5.5
2018-May-16 04:00N 29°41' W 094°11'3 5.6
2018-May-16 03:30N 29°40' W 094°14'3 5.3
2018-May-16 03:00N 29°39' W 094°16'3 5.3
2018-May-16 02:30N 29°38' W 094°19'3 5.1
2018-May-16 02:00N 29°36' W 094°22'2 4.7
2018-May-16 01:30N 29°36' W 094°24'2 4.5
2018-May-16 01:00N 29°34' W 094°26'3 5.1
2018-May-16 00:30N 29°33' W 094°28'2 5.0
2018-May-16 00:00N 29°31' W 094°31'3 5.2
2018-May-15 23:30N 29°30' W 094°33'2 4.9
2018-May-15 23:00N 29°29' W 094°36'12 4.7
2018-May-15 20:20N 29°22' W 094°48'1 2.4
2018-May-15 19:57N 29°23' W 094°48'2 5.5
2018-May-15 19:30N 29°25' W 094°50'3 6.3
2018-May-15 18:59N 29°28' W 094°51'  
Track history (hours):
 
Tides and Currents Weather Stations Pressure Air Temp Water Temp Dewpoint Dewpoint Depression Visibility Wind Speed Wind Dir Waves Ship Positions

Anita Eve Sharp

Owner: American Commercial Lines LLC, Jeffersonvillle, IN. More information available from US FCC via Universal Licensing System and Coast Guard Vessel Documentation Center.

Last reported at 2018-May-25 18:30 UTC. Time now 2018-May-25 18:48 UTC.
Position N 30°01' W 093°59'.

Length 26 m; draft 2.9 m.

Type: Tug. MMSI: 367057930.

Date/timePositionNaut miles runAvg speedWind from/ knotsBaromVisibWave heightAir tempDewpointWater temp
2018-May-25 18:30N 30°01' W 093°59'0 0.0
2018-May-25 18:00N 30°01' W 093°59'0 0.0
2018-May-25 17:30N 30°01' W 093°59'0 0.0
2018-May-25 16:59N 30°01' W 093°59'0 0.0
2018-May-25 16:27N 30°01' W 093°59'0 0.0
2018-May-25 16:00N 30°01' W 093°59'0 0.0
2018-May-25 15:29N 30°01' W 093°59'0 0.0
2018-May-25 15:00N 30°01' W 093°59'0 0.0
2018-May-25 14:30N 30°01' W 093°59'0 0.0
2018-May-25 14:00N 30°01' W 093°59'0 0.0
2018-May-25 13:30N 30°01' W 093°59'0 0.0
2018-May-25 13:00N 30°01' W 093°59'0 0.0
2018-May-25 12:29N 30°01' W 093°59'0 0.0
2018-May-25 12:00N 30°01' W 093°59'0 0.0
2018-May-25 11:30N 30°01' W 093°59'0 0.0
2018-May-25 11:00N 30°01' W 093°59'0 0.0
2018-May-25 10:30N 30°01' W 093°59'0 0.0
2018-May-25 10:00N 30°01' W 093°59'0 0.0
2018-May-25 09:30N 30°01' W 093°59'0 0.0
2018-May-25 09:00N 30°01' W 093°59'0 0.0
2018-May-25 08:30N 30°01' W 093°59'0 0.0
2018-May-25 08:00N 30°01' W 093°59'0 0.0
2018-May-25 07:30N 30°01' W 093°59'0 0.0
2018-May-25 07:00N 30°01' W 093°59'0 0.0
2018-May-25 06:30N 30°01' W 093°59'0 0.0
2018-May-25 06:00N 30°01' W 093°59'0 0.0
2018-May-25 05:29N 30°01' W 093°59'0 0.3
2018-May-25 05:00N 30°01' W 093°59'2 3.2
2018-May-25 04:30N 30°00' W 093°57'3 5.5
2018-May-25 04:00N 29°59' W 093°54'3 5.3
2018-May-25 03:30N 29°58' W 093°51'3 5.6
2018-May-25 03:00N 29°56' W 093°53'3 5.4
2018-May-25 02:30N 29°54' W 093°55'3 5.5
2018-May-25 02:00N 29°51' W 093°56'2 4.9
2018-May-25 01:30N 29°49' W 093°58'3 5.6
2018-May-25 01:00N 29°48' W 094°01'3 5.8
2018-May-25 00:30N 29°46' W 094°03'3 5.7
2018-May-25 00:00N 29°44' W 094°06'3 5.5
2018-May-24 23:29N 29°42' W 094°08'3 5.2
2018-May-24 23:00N 29°41' W 094°11'3 5.2
2018-May-24 22:30N 29°40' W 094°14'3 5.0
2018-May-24 22:00N 29°39' W 094°16'2 4.9
2018-May-24 21:30N 29°38' W 094°19'2 4.9
2018-May-24 21:00N 29°37' W 094°21'2 4.1
2018-May-24 20:28N 29°36' W 094°23'2 3.6
2018-May-24 19:57N 29°34' W 094°25'2 3.6
2018-May-24 19:28N 29°34' W 094°27'6 4.7
2018-May-24 18:06N 29°30' W 094°33'3 5.4
2018-May-24 17:31N 29°29' W 094°36'1 5.6
2018-May-24 17:24N 29°29' W 094°37'2 5.7
2018-May-24 16:59N 29°28' W 094°39'3 5.7
2018-May-24 16:30N 29°26' W 094°42'3 5.7
2018-May-24 16:00N 29°24' W 094°45'3 5.7
2018-May-24 15:30N 29°22' W 094°47'3 5.1
2018-May-24 14:53N 29°25' W 094°50'3 6.9
2018-May-24 14:30N 29°27' W 094°51'3 6.7
2018-May-24 14:00N 29°30' W 094°52'3 6.6
2018-May-24 13:30N 29°33' W 094°55'16 2.3
2018-May-24 06:32N 29°46' W 095°05'0 1.6
2018-May-24 06:30N 29°46' W 095°05'1 0.1
2018-May-23 21:12N 29°46' W 095°07'0 0.0
2018-May-23 20:59N 29°46' W 095°07'0 0.0
2018-May-23 20:29N 29°46' W 095°07'0 0.0
2018-May-23 16:29N 29°46' W 095°07'0 0.1
2018-May-23 13:09N 29°46' W 095°07'0 2.3
2018-May-23 12:57N 29°46' W 095°06'1 1.2
2018-May-23 12:22N 29°46' W 095°05'2 3.8
2018-May-23 11:57N 29°45' W 095°04'2 4.2
2018-May-23 11:29N 29°44' W 095°02'2 3.6
2018-May-23 10:59N 29°42' W 095°01'2 4.5
2018-May-23 10:30N 29°41' W 094°59'3 5.2
2018-May-23 10:00N 29°38' W 094°58'3 5.5
2018-May-23 09:30N 29°36' W 094°57'3 5.9
2018-May-23 08:58N 29°33' W 094°55'3 5.8
2018-May-23 08:30N 29°31' W 094°53'6 5.7
2018-May-23 07:22N 29°25' W 094°50'2 5.9
2018-May-23 06:57N 29°23' W 094°49'2 3.9
2018-May-23 06:30N 29°23' W 094°47'2 4.1
2018-May-23 05:59N 29°24' W 094°45'2 3.2
2018-May-23 05:29N 29°25' W 094°44'3 3.5
2018-May-23 04:35N 29°27' W 094°41'1 4.7
2018-May-23 04:29N 29°28' W 094°40'2 4.7
2018-May-23 04:00N 29°28' W 094°38'2 4.8
2018-May-23 03:30N 29°29' W 094°35'3 4.8
2018-May-23 02:53N 29°30' W 094°32'2 4.8
2018-May-23 02:30N 29°31' W 094°30'3 4.6
2018-May-23 01:51N 29°33' W 094°28'2 4.3
2018-May-23 01:30N 29°34' W 094°26'2 3.2
2018-May-23 01:00N 29°35' W 094°25'2 3.0
2018-May-23 00:28N 29°36' W 094°23'2 3.4
2018-May-23 00:00N 29°36' W 094°22'2 3.1
2018-May-22 23:29N 29°37' W 094°20'2 4.6
2018-May-22 23:00N 29°38' W 094°18'2 4.7
2018-May-22 22:30N 29°39' W 094°15'2 4.9
2018-May-22 22:00N 29°40' W 094°13'2 4.8
2018-May-22 21:30N 29°41' W 094°10'2 4.9
2018-May-22 21:00N 29°43' W 094°08'3 5.1
2018-May-22 20:30N 29°44' W 094°06'2 4.8
2018-May-22 20:00N 29°46' W 094°03'3 5.5
2018-May-22 19:30N 29°47' W 094°01'3 5.2
2018-May-22 19:00N 29°49' W 093°59'2 4.2
2018-May-22 18:30N 29°51' W 093°57'2 3.5
2018-May-22 18:00N 29°52' W 093°56'2 4.4
2018-May-22 17:30N 29°54' W 093°54'2 4.2
2018-May-22 17:00N 29°55' W 093°53'2 4.3
2018-May-22 16:30N 29°57' W 093°52'2 3.5
2018-May-22 16:00N 29°59' W 093°52'2 4.6
2018-May-22 15:30N 29°59' W 093°55'2 4.5
2018-May-22 15:00N 30°00' W 093°57'2 3.4
2018-May-22 14:30N 30°01' W 093°59'0 0.2
2018-May-22 14:00N 30°01' W 093°59'0 0.0
2018-May-22 13:30N 30°01' W 093°59'0 0.0
2018-May-22 13:00N 30°01' W 093°59'0 0.0
2018-May-22 12:23N 30°01' W 093°59'0 0.0
2018-May-22 12:00N 30°01' W 093°59'0 0.0
2018-May-22 11:30N 30°01' W 093°59'0 0.0
2018-May-22 10:58N 30°01' W 093°59'0 0.0
2018-May-22 10:29N 30°01' W 093°59'0 0.0
2018-May-22 09:57N 30°01' W 093°59'0 0.0
2018-May-22 09:29N 30°01' W 093°59'0 0.0
2018-May-22 09:00N 30°01' W 093°59'0 0.0
2018-May-22 08:27N 30°01' W 093°59'0 0.0
2018-May-22 07:58N 30°01' W 093°59'0 0.0
2018-May-22 07:30N 30°01' W 093°59'0 0.0
2018-May-22 07:00N 30°01' W 093°59'0 0.0
2018-May-22 06:29N 30°01' W 093°59'0 0.0
2018-May-22 06:00N 30°01' W 093°59'0 0.0
2018-May-22 05:28N 30°01' W 093°59'0 0.0
2018-May-22 04:59N 30°01' W 093°59'0 0.0
2018-May-22 04:15N 30°01' W 093°59'0 0.0
2018-May-22 03:59N 30°01' W 093°59'0 0.0
2018-May-22 03:27N 30°01' W 093°59'0 0.0
2018-May-22 03:00N 30°01' W 093°59'0 0.0
2018-May-22 02:29N 30°01' W 093°59'0 0.0
2018-May-22 01:59N 30°01' W 093°59'0 0.0
2018-May-22 01:27N 30°01' W 093°59'0 0.0
2018-May-22 00:58N 30°01' W 093°59'0 0.0
2018-May-22 00:30N 30°01' W 093°59'0 0.0
2018-May-21 23:47N 30°01' W 093°59'0 0.0
2018-May-21 23:30N 30°01' W 093°59'0 0.0
2018-May-21 23:00N 30°01' W 093°59'0 0.0
2018-May-21 22:29N 30°01' W 093°59'0 0.1
2018-May-21 22:00N 30°01' W 093°59'0 1.0
2018-May-21 21:29N 30°01' W 093°59'0 0.0
2018-May-21 20:59N 30°01' W 093°59'0 0.0
2018-May-21 20:30N 30°01' W 093°59'0 0.0
2018-May-21 20:00N 30°01' W 093°59'0 0.0
2018-May-21 19:29N 30°01' W 093°59'0 0.0
2018-May-21 19:00N 30°01' W 093°59'0 0.0
2018-May-21 18:30N 30°01' W 093°59'0 0.0
2018-May-21 18:00N 30°01' W 093°59'0 0.0
2018-May-21 17:30N 30°01' W 093°59'0 0.0
2018-May-21 17:00N 30°01' W 093°59'0 0.0
2018-May-21 16:30N 30°01' W 093°59'0 0.0
2018-May-21 15:58N 30°01' W 093°59'0 0.0
2018-May-21 15:29N 30°01' W 093°59'0 0.0
2018-May-21 14:58N 30°01' W 093°59'0 0.0
2018-May-21 14:30N 30°01' W 093°59'0 0.0
2018-May-21 13:58N 30°01' W 093°59'0 0.0
2018-May-21 13:30N 30°01' W 093°59'0 0.0
2018-May-21 13:00N 30°01' W 093°59'0 0.0
2018-May-21 12:28N 30°01' W 093°59'0 0.0
2018-May-21 12:00N 30°01' W 093°59'0 0.0
2018-May-21 11:30N 30°01' W 093°59'0 0.0
2018-May-21 11:00N 30°01' W 093°59'0 0.0
2018-May-21 10:30N 30°01' W 093°59'0 0.0
2018-May-21 10:00N 30°01' W 093°59'0 0.0
2018-May-21 09:30N 30°01' W 093°59'0 0.0
2018-May-21 09:00N 30°01' W 093°59'0 0.0
2018-May-21 08:30N 30°01' W 093°59'0 0.0
2018-May-21 08:00N 30°01' W 093°59'0 0.0
2018-May-21 07:30N 30°01' W 093°59'0 0.0
2018-May-21 07:00N 30°01' W 093°59'0 0.0
2018-May-21 06:30N 30°01' W 093°59'0 0.0
2018-May-21 06:00N 30°01' W 093°59'0 0.0
2018-May-21 05:30N 30°01' W 093°59'0 0.0
2018-May-21 05:00N 30°01' W 093°59'0 0.0
2018-May-21 04:30N 30°01' W 093°59'0 0.0
2018-May-21 03:59N 30°01' W 093°59'0 0.0
2018-May-21 03:29N 30°01' W 093°59'0 0.0
2018-May-21 03:00N 30°01' W 093°59'0 0.0
2018-May-21 02:30N 30°01' W 093°59'0 0.0
2018-May-21 01:54N 30°01' W 093°59'0 0.0
2018-May-21 01:30N 30°01' W 093°59'0 0.0
2018-May-21 01:00N 30°01' W 093°59'0 0.0
2018-May-21 00:30N 30°01' W 093°59'0 0.0
2018-May-21 00:00N 30°01' W 093°59'0 0.0
2018-May-20 23:30N 30°01' W 093°59'0 0.0
2018-May-20 23:00N 30°01' W 093°59'0 0.0
2018-May-20 22:30N 30°01' W 093°59'0 0.0
2018-May-20 22:00N 30°01' W 093°59'0 0.0
2018-May-20 21:30N 30°01' W 093°59'0 0.0
2018-May-20 21:00N 30°01' W 093°59'0 0.0
2018-May-20 20:30N 30°01' W 093°59'0 0.0
2018-May-20 20:00N 30°01' W 093°59'0 0.0
2018-May-20 19:30N 30°01' W 093°59'0 0.0
2018-May-20 18:59N 30°01' W 093°59'0 0.0
2018-May-20 18:30N 30°01' W 093°59'0 0.0
2018-May-20 18:00N 30°01' W 093°59'0 0.0
2018-May-20 17:29N 30°01' W 093°59'0 0.0
2018-May-20 17:00N 30°01' W 093°59'0 0.0
2018-May-20 16:30N 30°01' W 093°59'0 0.0
2018-May-20 16:00N 30°01' W 093°59'0 0.0
2018-May-20 15:30N 30°01' W 093°59'0 0.1
2018-May-20 15:00N 30°01' W 093°59'0 0.1
2018-May-20 14:30N 30°01' W 093°59'0 0.0
2018-May-20 14:00N 30°01' W 093°59'0 0.0
2018-May-20 13:31N 30°01' W 093°59'0 0.0
2018-May-20 13:00N 30°01' W 093°59'0 0.6
2018-May-20 12:30N 30°01' W 093°59'2 4.3
2018-May-20 12:01N 29°60' W 093°57'3 5.8
2018-May-20 11:30N 29°59' W 093°54'2 4.9
2018-May-20 11:00N 29°58' W 093°51'3 5.7
2018-May-20 10:30N 29°56' W 093°53'3 5.3
2018-May-20 10:00N 29°53' W 093°55'3 5.1
2018-May-20 09:30N 29°51' W 093°56'2 4.7
2018-May-20 09:00N 29°49' W 093°58'3 5.1
2018-May-20 08:30N 29°48' W 094°00'3 5.3
2018-May-20 08:00N 29°46' W 094°03'3 5.3
2018-May-20 07:30N 29°45' W 094°05'3 5.3
2018-May-20 07:00N 29°43' W 094°07'2 4.9
2018-May-20 06:31N 29°41' W 094°10'3 5.1
2018-May-20 06:00N 29°41' W 094°12'3 5.1
2018-May-20 05:30N 29°40' W 094°15'2 4.9
2018-May-20 05:00N 29°38' W 094°17'2 4.6
2018-May-20 04:30N 29°37' W 094°20'2 4.3
2018-May-20 03:57N 29°36' W 094°22'2 3.8
2018-May-20 03:30N 29°36' W 094°24'1 1.6
2018-May-20 02:55N 29°35' W 094°25'21 4.3
2018-May-19 22:02N 29°24' W 094°45'1 5.9
2018-May-19 21:55N 29°23' W 094°46'3 4.1
2018-May-19 21:18N 29°23' W 094°49'2 6.0
2018-May-19 20:59N 29°25' W 094°50'3 6.1
2018-May-19 20:28N 29°28' W 094°51'3 6.0
2018-May-19 20:00N 29°30' W 094°53'3 5.9
2018-May-19 19:30N 29°33' W 094°54'3 5.9
2018-May-19 19:00N 29°35' W 094°56'3 5.1
2018-May-19 18:30N 29°38' W 094°58'3 5.9
2018-May-19 18:00N 29°40' W 094°59'3 5.4
2018-May-19 17:28N 29°42' W 095°01'6 0.3
2018-May-19 01:11N 29°46' W 095°06'0 2.4
2018-May-19 01:00N 29°45' W 095°06'1 1.8
2018-May-19 00:11N 29°45' W 095°04'1 5.5
2018-May-18 23:58N 29°44' W 095°04'2 5.0
2018-May-18 23:30N 29°43' W 095°01'2 4.5
2018-May-18 23:00N 29°42' W 094°59'3 5.9
2018-May-18 22:30N 29°39' W 094°58'3 6.1
2018-May-18 22:00N 29°36' W 094°57'3 6.2
2018-May-18 21:30N 29°33' W 094°55'3 6.0
2018-May-18 21:00N 29°31' W 094°53'9 6.0
2018-May-18 19:27N 29°23' W 094°48'8 4.1
2018-May-18 17:29N 29°27' W 094°41'3 4.8
2018-May-18 16:56N 29°28' W 094°38'2 4.6
2018-May-18 16:30N 29°29' W 094°36'3 4.6
2018-May-18 15:53N 29°30' W 094°33'2 4.1
2018-May-18 15:27N 29°31' W 094°31'2 4.5
2018-May-18 14:59N 29°32' W 094°29'2 4.2
2018-May-18 14:30N 29°34' W 094°28'0 0.0
2018-May-18 14:00N 29°34' W 094°28'0 0.1
2018-May-18 13:30N 29°34' W 094°28'1 1.6
2018-May-18 12:59N 29°34' W 094°27'2 3.6
2018-May-18 12:28N 29°35' W 094°25'1 2.6
2018-May-18 11:59N 29°36' W 094°24'1 1.9
2018-May-18 11:30N 29°36' W 094°23'2 4.4
2018-May-18 11:00N 29°37' W 094°21'2 4.3
2018-May-18 10:30N 29°38' W 094°19'2 3.8
2018-May-18 10:00N 29°39' W 094°17'2 3.4
2018-May-18 09:30N 29°40' W 094°15'2 4.2
2018-May-18 09:00N 29°40' W 094°13'2 4.0
2018-May-18 08:30N 29°41' W 094°11'2 3.9
2018-May-18 08:00N 29°42' W 094°09'2 3.9
2018-May-18 07:30N 29°43' W 094°07'2 3.8
2018-May-18 07:00N 29°44' W 094°05'2 3.7
2018-May-18 06:30N 29°46' W 094°04'2 3.6
2018-May-18 06:00N 29°47' W 094°02'2 3.6
2018-May-18 05:30N 29°48' W 094°00'2 3.4
2018-May-18 05:00N 29°49' W 093°59'1 1.5
2018-May-18 04:30N 29°49' W 093°58'3 5.3
2018-May-18 04:00N 29°51' W 093°56'3 5.9
2018-May-18 03:30N 29°54' W 093°54'3 6.1
2018-May-18 03:00N 29°56' W 093°52'3 5.0
2018-May-18 02:30N 29°59' W 093°52'3 5.2
2018-May-18 02:00N 29°59' W 093°55'2 4.4
2018-May-18 01:30N 29°60' W 093°57'2 3.5
2018-May-18 01:00N 30°01' W 093°59'0 0.2
2018-May-18 00:31N 30°01' W 093°59'0 0.1
2018-May-17 23:58N 30°01' W 093°59'0 0.0
2018-May-17 23:25N 30°01' W 093°59'0 0.0
2018-May-17 23:00N 30°01' W 093°59'0 0.0
2018-May-17 22:30N 30°01' W 093°59'0 0.0
2018-May-17 22:00N 30°01' W 093°59'0 0.0
2018-May-17 21:27N 30°01' W 093°59'0 0.0
2018-May-17 21:00N 30°01' W 093°59'0 0.0
2018-May-17 20:30N 30°01' W 093°59'0 0.0
2018-May-17 19:50N 30°01' W 093°59'0 0.0
2018-May-17 19:19N 30°01' W 093°59'0 0.0
2018-May-17 18:49N 30°01' W 093°59'0 0.0
2018-May-17 18:27N 30°01' W 093°59'0 0.0
2018-May-17 17:59N 30°01' W 093°59'0 0.0
2018-May-17 17:28N 30°01' W 093°59'0 0.0
2018-May-17 16:59N 30°01' W 093°59'0 0.0
2018-May-17 16:28N 30°01' W 093°59'0 0.0
2018-May-17 16:00N 30°01' W 093°59'0 0.0
2018-May-17 15:30N 30°01' W 093°59'0 0.0
2018-May-17 14:59N 30°01' W 093°59'0 0.0
2018-May-17 14:30N 30°01' W 093°59'0 0.0
2018-May-17 13:59N 30°01' W 093°59'0 0.0
2018-May-17 13:30N 30°01' W 093°59'0 0.0
2018-May-17 13:00N 30°01' W 093°59'0 0.0
2018-May-17 12:28N 30°01' W 093°59'0 0.0
2018-May-17 12:00N 30°01' W 093°59'0 0.0
2018-May-17 11:30N 30°01' W 093°59'0 0.0
2018-May-17 11:00N 30°01' W 093°59'0 0.0
2018-May-17 10:29N 30°01' W 093°59'0 0.0
2018-May-17 10:00N 30°01' W 093°59'0 0.0
2018-May-17 09:30N 30°01' W 093°59'0 0.0
2018-May-17 09:00N 30°01' W 093°59'0 0.0
2018-May-17 08:28N 30°01' W 093°59'0 0.0
2018-May-17 07:51N 30°01' W 093°59'0 0.0
2018-May-17 07:28N 30°01' W 093°59'0 0.1
2018-May-17 07:00N 30°01' W 093°59'1 2.3
2018-May-17 06:30N 30°01' W 093°58'2 3.9
2018-May-17 06:00N 29°60' W 093°56'2 4.1
2018-May-17 05:30N 29°59' W 093°54'2 4.0
2018-May-17 05:00N 29°59' W 093°52'2 3.7
2018-May-17 04:30N 29°57' W 093°52'1 1.1
2018-May-17 04:00N 29°57' W 093°52'0 0.0
2018-May-17 03:30N 29°57' W 093°52'0 0.0
2018-May-17 03:00N 29°57' W 093°52'0 0.0
2018-May-17 02:30N 29°57' W 093°52'0 0.0
2018-May-17 02:00N 29°57' W 093°52'0 0.0
2018-May-17 01:30N 29°57' W 093°52'0 0.0
2018-May-17 01:00N 29°57' W 093°52'0 0.0
2018-May-17 00:30N 29°57' W 093°52'0 0.0
2018-May-17 00:00N 29°57' W 093°52'0 0.0
2018-May-16 23:30N 29°57' W 093°52'0 0.0
2018-May-16 23:00N 29°57' W 093°52'0 0.0
2018-May-16 22:30N 29°57' W 093°52'0 0.0
2018-May-16 22:00N 29°57' W 093°52'0 0.0
2018-May-16 21:30N 29°57' W 093°52'0 0.0
2018-May-16 21:00N 29°57' W 093°52'1 1.1
2018-May-16 20:30N 29°58' W 093°52'1 1.1
2018-May-16 20:00N 29°57' W 093°52'0 0.0
2018-May-16 19:30N 29°57' W 093°52'0 0.0
2018-May-16 19:00N 29°57' W 093°52'0 0.0
2018-May-16 18:31N 29°57' W 093°52'0 0.0
2018-May-16 18:00N 29°57' W 093°52'0 0.0
2018-May-16 17:30N 29°57' W 093°52'0 0.0
2018-May-16 17:00N 29°57' W 093°52'0 0.0
2018-May-16 16:30N 29°57' W 093°52'0 0.0
2018-May-16 16:00N 29°57' W 093°52'0 0.0
2018-May-16 15:30N 29°57' W 093°52'0 0.0
2018-May-16 15:00N 29°57' W 093°52'0 0.0
2018-May-16 14:30N 29°57' W 093°52'0 0.0
2018-May-16 14:00N 29°57' W 093°52'0 0.0
2018-May-16 13:30N 29°57' W 093°52'0 0.0
2018-May-16 13:00N 29°57' W 093°52'0 0.0
2018-May-16 12:30N 29°57' W 093°52'0 0.0
2018-May-16 12:00N 29°57' W 093°52'0 0.0
2018-May-16 11:30N 29°57' W 093°52'0 0.0
2018-May-16 11:00N 29°57' W 093°52'0 0.0
2018-May-16 10:30N 29°57' W 093°52'0 0.0
2018-May-16 10:00N 29°57' W 093°52'0 0.0
2018-May-16 09:30N 29°57' W 093°52'0 0.4
2018-May-16 09:00N 29°57' W 093°52'1 2.7
2018-May-16 08:30N 29°56' W 093°52'2 4.3
2018-May-16 08:00N 29°54' W 093°54'2 4.8
2018-May-16 07:30N 29°52' W 093°56'2 4.4
2018-May-16 07:00N 29°50' W 093°57'2 3.7
2018-May-16 06:30N 29°49' W 093°59'2 4.4
2018-May-16 06:00N 29°48' W 094°01'3 5.3
2018-May-16 05:30N 29°46' W 094°03'3 5.7
2018-May-16 05:00N 29°44' W 094°06'3 5.5
2018-May-16 04:30N 29°42' W 094°08'3 5.5
2018-May-16 04:00N 29°41' W 094°11'3 5.6
2018-May-16 03:30N 29°40' W 094°14'3 5.3
2018-May-16 03:00N 29°39' W 094°16'3 5.3
2018-May-16 02:30N 29°38' W 094°19'3 5.1
2018-May-16 02:00N 29°36' W 094°22'2 4.7
2018-May-16 01:30N 29°36' W 094°24'2 4.5
2018-May-16 01:00N 29°34' W 094°26'3 5.1
2018-May-16 00:30N 29°33' W 094°28'2 5.0
2018-May-16 00:00N 29°31' W 094°31'3 5.2
2018-May-15 23:30N 29°30' W 094°33'2 4.9
2018-May-15 23:00N 29°29' W 094°36'12 4.7
2018-May-15 20:20N 29°22' W 094°48'1 2.4
2018-May-15 19:57N 29°23' W 094°48'2 5.5
2018-May-15 19:30N 29°25' W 094°50'3 6.3
2018-May-15 18:59N 29°28' W 094°51'  

Dump ship's entire track history